sensor_id;sensor_type;location;lat;lon;timestamp;P1;durP1;ratioP1;P2;durP2;ratioP2
34673;SDS011;20879;55.668;37.858;2022-09-27T00:00:06;19.55;;;11.90;;
34673;SDS011;20879;55.668;37.858;2022-09-27T00:02:39;17.00;;;11.45;;
34673;SDS011;20879;55.668;37.858;2022-09-27T00:05:10;14.02;;;10.10;;
34673;SDS011;20879;55.668;37.858;2022-09-27T00:07:39;18.70;;;14.85;;
34673;SDS011;20879;55.668;37.858;2022-09-27T00:10:15;19.20;;;14.40;;
34673;SDS011;20879;55.668;37.858;2022-09-27T00:12:45;19.65;;;12.18;;
34673;SDS011;20879;55.668;37.858;2022-09-27T00:15:15;30.77;;;25.15;;
34673;SDS011;20879;55.668;37.858;2022-09-27T00:17:45;24.73;;;18.15;;
34673;SDS011;20879;55.668;37.858;2022-09-27T00:20:17;43.40;;;33.30;;
34673;SDS011;20879;55.668;37.858;2022-09-27T00:22:47;35.92;;;28.17;;
34673;SDS011;20879;55.668;37.858;2022-09-27T00:25:19;37.25;;;27.17;;
34673;SDS011;20879;55.668;37.858;2022-09-27T00:27:48;39.80;;;29.73;;
34673;SDS011;20879;55.668;37.858;2022-09-27T00:30:22;39.45;;;29.48;;
34673;SDS011;20879;55.668;37.858;2022-09-27T00:32:57;38.22;;;28.83;;
34673;SDS011;20879;55.668;37.858;2022-09-27T00:35:26;19.25;;;13.00;;
34673;SDS011;20879;55.668;37.858;2022-09-27T00:37:55;41.22;;;25.38;;
34673;SDS011;20879;55.668;37.858;2022-09-27T00:40:26;39.03;;;28.42;;
34673;SDS011;20879;55.668;37.858;2022-09-27T00:43:01;38.42;;;28.33;;
34673;SDS011;20879;55.668;37.858;2022-09-27T00:45:41;36.45;;;29.40;;
34673;SDS011;20879;55.668;37.858;2022-09-27T00:48:23;32.87;;;25.43;;
34673;SDS011;20879;55.668;37.858;2022-09-27T00:51:01;33.38;;;25.73;;
34673;SDS011;20879;55.668;37.858;2022-09-27T00:53:36;30.52;;;21.77;;
34673;SDS011;20879;55.668;37.858;2022-09-27T00:56:15;25.90;;;18.73;;
34673;SDS011;20879;55.668;37.858;2022-09-27T00:58:47;27.60;;;17.40;;
34673;SDS011;20879;55.668;37.858;2022-09-27T01:01:26;31.85;;;22.38;;
34673;SDS011;20879;55.668;37.858;2022-09-27T01:03:58;33.53;;;24.98;;
34673;SDS011;20879;55.668;37.858;2022-09-27T01:06:40;33.50;;;26.70;;
34673;SDS011;20879;55.668;37.858;2022-09-27T01:09:09;40.67;;;30.48;;
34673;SDS011;20879;55.668;37.858;2022-09-27T01:11:42;36.78;;;27.75;;
34673;SDS011;20879;55.668;37.858;2022-09-27T01:14:26;32.38;;;20.17;;
34673;SDS011;20879;55.668;37.858;2022-09-27T01:17:11;40.45;;;28.25;;
34673;SDS011;20879;55.668;37.858;2022-09-27T01:20:13;32.38;;;23.08;;
34673;SDS011;20879;55.668;37.858;2022-09-27T01:23:17;46.28;;;31.52;;
34673;SDS011;20879;55.668;37.858;2022-09-27T01:26:04;39.38;;;29.40;;
34673;SDS011;20879;55.668;37.858;2022-09-27T01:28:50;33.40;;;25.65;;
34673;SDS011;20879;55.668;37.858;2022-09-27T01:31:41;38.60;;;29.33;;
34673;SDS011;20879;55.668;37.858;2022-09-27T01:34:20;27.85;;;18.77;;
34673;SDS011;20879;55.668;37.858;2022-09-27T01:36:58;18.27;;;11.43;;
34673;SDS011;20879;55.668;37.858;2022-09-27T01:45:08;34.40;;;22.17;;
34673;SDS011;20879;55.668;37.858;2022-09-27T01:47:56;33.80;;;20.65;;
34673;SDS011;20879;55.668;37.858;2022-09-27T01:51:04;32.00;;;23.13;;
34673;SDS011;20879;55.668;37.858;2022-09-27T01:53:38;39.78;;;28.17;;
34673;SDS011;20879;55.668;37.858;2022-09-27T01:56:26;43.60;;;27.88;;
34673;SDS011;20879;55.668;37.858;2022-09-27T01:59:13;37.45;;;25.08;;
34673;SDS011;20879;55.668;37.858;2022-09-27T02:01:54;39.45;;;24.55;;
34673;SDS011;20879;55.668;37.858;2022-09-27T02:04:40;44.85;;;23.58;;
34673;SDS011;20879;55.668;37.858;2022-09-27T02:07:19;40.83;;;25.13;;
34673;SDS011;20879;55.668;37.858;2022-09-27T02:09:54;40.83;;;24.88;;
34673;SDS011;20879;55.668;37.858;2022-09-27T02:12:43;38.75;;;23.92;;
34673;SDS011;20879;55.668;37.858;2022-09-27T02:15:19;36.80;;;26.02;;
34673;SDS011;20879;55.668;37.858;2022-09-27T02:18:01;36.75;;;20.70;;
34673;SDS011;20879;55.668;37.858;2022-09-27T02:20:48;37.92;;;21.40;;
34673;SDS011;20879;55.668;37.858;2022-09-27T02:23:20;44.40;;;25.65;;
34673;SDS011;20879;55.668;37.858;2022-09-27T02:26:02;38.78;;;22.42;;
34673;SDS011;20879;55.668;37.858;2022-09-27T02:28:40;39.55;;;22.75;;
34673;SDS011;20879;55.668;37.858;2022-09-27T02:31:21;40.78;;;24.70;;
34673;SDS011;20879;55.668;37.858;2022-09-27T02:33:53;41.92;;;28.15;;
34673;SDS011;20879;55.668;37.858;2022-09-27T02:36:28;39.80;;;25.67;;
34673;SDS011;20879;55.668;37.858;2022-09-27T02:39:03;33.35;;;20.50;;
34673;SDS011;20879;55.668;37.858;2022-09-27T02:41:33;38.72;;;24.95;;
34673;SDS011;20879;55.668;37.858;2022-09-27T02:44:02;30.98;;;19.20;;
34673;SDS011;20879;55.668;37.858;2022-09-27T02:49:37;32.30;;;18.85;;
34673;SDS011;20879;55.668;37.858;2022-09-27T02:52:41;30.00;;;18.83;;
34673;SDS011;20879;55.668;37.858;2022-09-27T02:55:18;28.25;;;18.08;;
34673;SDS011;20879;55.668;37.858;2022-09-27T02:58:06;33.90;;;18.25;;
34673;SDS011;20879;55.668;37.858;2022-09-27T03:01:20;40.45;;;21.45;;
34673;SDS011;20879;55.668;37.858;2022-09-27T03:04:06;34.10;;;18.42;;
34673;SDS011;20879;55.668;37.858;2022-09-27T03:06:42;31.63;;;18.38;;
34673;SDS011;20879;55.668;37.858;2022-09-27T03:09:22;35.33;;;18.75;;
34673;SDS011;20879;55.668;37.858;2022-09-27T03:11:55;43.15;;;20.65;;
34673;SDS011;20879;55.668;37.858;2022-09-27T03:14:25;30.70;;;17.98;;
34673;SDS011;20879;55.668;37.858;2022-09-27T03:17:04;35.05;;;18.80;;
34673;SDS011;20879;55.668;37.858;2022-09-27T03:20:09;32.72;;;16.80;;
34673;SDS011;20879;55.668;37.858;2022-09-27T03:22:51;32.08;;;18.10;;
34673;SDS011;20879;55.668;37.858;2022-09-27T03:25:24;33.65;;;19.73;;
34673;SDS011;20879;55.668;37.858;2022-09-27T03:27:53;30.83;;;18.38;;
34673;SDS011;20879;55.668;37.858;2022-09-27T03:30:33;29.98;;;19.33;;
34673;SDS011;20879;55.668;37.858;2022-09-27T03:33:09;32.72;;;18.67;;
34673;SDS011;20879;55.668;37.858;2022-09-27T03:35:44;34.13;;;17.38;;
34673;SDS011;20879;55.668;37.858;2022-09-27T03:38:14;32.88;;;18.05;;
34673;SDS011;20879;55.668;37.858;2022-09-27T03:40:45;35.13;;;19.00;;
34673;SDS011;20879;55.668;37.858;2022-09-27T03:43:21;29.67;;;17.02;;
34673;SDS011;20879;55.668;37.858;2022-09-27T03:45:56;27.17;;;16.27;;
34673;SDS011;20879;55.668;37.858;2022-09-27T03:48:27;30.25;;;18.13;;
34673;SDS011;20879;55.668;37.858;2022-09-27T03:51:02;33.95;;;19.23;;
34673;SDS011;20879;55.668;37.858;2022-09-27T03:53:32;37.83;;;23.23;;
34673;SDS011;20879;55.668;37.858;2022-09-27T03:56:03;29.98;;;18.42;;
34673;SDS011;20879;55.668;37.858;2022-09-27T03:58:33;30.52;;;18.90;;
34673;SDS011;20879;55.668;37.858;2022-09-27T04:01:03;29.58;;;17.83;;
34673;SDS011;20879;55.668;37.858;2022-09-27T04:03:33;35.92;;;19.95;;
34673;SDS011;20879;55.668;37.858;2022-09-27T04:06:06;39.83;;;19.67;;
34673;SDS011;20879;55.668;37.858;2022-09-27T04:08:43;33.55;;;19.60;;
34673;SDS011;20879;55.668;37.858;2022-09-27T04:11:15;35.30;;;18.63;;
34673;SDS011;20879;55.668;37.858;2022-09-27T04:13:45;33.60;;;18.02;;
34673;SDS011;20879;55.668;37.858;2022-09-27T04:16:17;33.40;;;19.50;;
34673;SDS011;20879;55.668;37.858;2022-09-27T04:18:56;34.58;;;19.60;;
34673;SDS011;20879;55.668;37.858;2022-09-27T04:21:45;33.95;;;18.00;;
34673;SDS011;20879;55.668;37.858;2022-09-27T04:24:21;29.10;;;16.25;;
34673;SDS011;20879;55.668;37.858;2022-09-27T04:27:12;30.30;;;15.55;;
34673;SDS011;20879;55.668;37.858;2022-09-27T04:29:43;34.88;;;17.80;;
34673;SDS011;20879;55.668;37.858;2022-09-27T04:32:32;33.58;;;16.85;;
34673;SDS011;20879;55.668;37.858;2022-09-27T04:35:27;30.92;;;15.77;;
34673;SDS011;20879;55.668;37.858;2022-09-27T04:38:09;33.90;;;18.17;;
34673;SDS011;20879;55.668;37.858;2022-09-27T04:40:39;35.33;;;17.70;;
34673;SDS011;20879;55.668;37.858;2022-09-27T04:43:10;31.17;;;16.77;;
34673;SDS011;20879;55.668;37.858;2022-09-27T04:45:40;36.95;;;16.90;;
34673;SDS011;20879;55.668;37.858;2022-09-27T04:48:11;33.67;;;15.90;;
34673;SDS011;20879;55.668;37.858;2022-09-27T04:50:46;32.60;;;16.92;;
34673;SDS011;20879;55.668;37.858;2022-09-27T04:53:22;37.33;;;15.93;;
34673;SDS011;20879;55.668;37.858;2022-09-27T04:55:52;30.52;;;16.58;;
34673;SDS011;20879;55.668;37.858;2022-09-27T04:58:24;33.97;;;16.80;;
34673;SDS011;20879;55.668;37.858;2022-09-27T05:01:00;32.42;;;16.25;;
34673;SDS011;20879;55.668;37.858;2022-09-27T05:03:55;29.38;;;15.57;;
34673;SDS011;20879;55.668;37.858;2022-09-27T05:06:26;36.42;;;21.35;;
34673;SDS011;20879;55.668;37.858;2022-09-27T05:09:03;32.47;;;15.95;;
34673;SDS011;20879;55.668;37.858;2022-09-27T05:11:45;37.35;;;15.13;;
34673;SDS011;20879;55.668;37.858;2022-09-27T05:14:16;36.38;;;15.68;;
34673;SDS011;20879;55.668;37.858;2022-09-27T05:19:44;35.80;;;15.88;;
34673;SDS011;20879;55.668;37.858;2022-09-27T05:22:25;26.90;;;14.45;;
34673;SDS011;20879;55.668;37.858;2022-09-27T05:25:00;28.15;;;13.30;;
34673;SDS011;20879;55.668;37.858;2022-09-27T05:27:29;31.25;;;15.55;;
34673;SDS011;20879;55.668;37.858;2022-09-27T05:30:00;31.02;;;14.82;;
34673;SDS011;20879;55.668;37.858;2022-09-27T05:32:37;29.15;;;14.55;;
34673;SDS011;20879;55.668;37.858;2022-09-27T05:35:25;30.67;;;15.60;;
34673;SDS011;20879;55.668;37.858;2022-09-27T05:37:57;33.05;;;15.50;;
34673;SDS011;20879;55.668;37.858;2022-09-27T05:40:30;27.17;;;14.45;;
34673;SDS011;20879;55.668;37.858;2022-09-27T05:43:08;30.55;;;14.52;;
34673;SDS011;20879;55.668;37.858;2022-09-27T05:45:40;30.25;;;13.63;;
34673;SDS011;20879;55.668;37.858;2022-09-27T05:48:11;29.30;;;14.38;;
34673;SDS011;20879;55.668;37.858;2022-09-27T05:50:51;23.73;;;12.85;;
34673;SDS011;20879;55.668;37.858;2022-09-27T05:53:21;26.40;;;14.52;;
34673;SDS011;20879;55.668;37.858;2022-09-27T05:55:51;27.52;;;13.80;;
34673;SDS011;20879;55.668;37.858;2022-09-27T05:58:27;25.65;;;13.73;;
34673;SDS011;20879;55.668;37.858;2022-09-27T06:01:13;26.73;;;14.40;;
34673;SDS011;20879;55.668;37.858;2022-09-27T06:04:05;24.00;;;12.88;;
34673;SDS011;20879;55.668;37.858;2022-09-27T06:07:12;21.15;;;12.98;;
34673;SDS011;20879;55.668;37.858;2022-09-27T06:09:41;23.77;;;12.50;;
34673;SDS011;20879;55.668;37.858;2022-09-27T06:14:48;22.05;;;12.85;;
34673;SDS011;20879;55.668;37.858;2022-09-27T06:17:34;24.40;;;12.82;;
34673;SDS011;20879;55.668;37.858;2022-09-27T06:20:18;17.48;;;11.27;;
34673;SDS011;20879;55.668;37.858;2022-09-27T06:22:53;20.10;;;12.38;;
34673;SDS011;20879;55.668;37.858;2022-09-27T06:25:22;22.80;;;12.25;;
34673;SDS011;20879;55.668;37.858;2022-09-27T06:28:12;23.35;;;11.35;;
34673;SDS011;20879;55.668;37.858;2022-09-27T06:30:44;24.00;;;12.75;;
34673;SDS011;20879;55.668;37.858;2022-09-27T06:33:26;22.67;;;12.90;;
34673;SDS011;20879;55.668;37.858;2022-09-27T06:36:02;27.40;;;15.73;;
34673;SDS011;20879;55.668;37.858;2022-09-27T06:38:35;22.77;;;12.07;;
34673;SDS011;20879;55.668;37.858;2022-09-27T06:41:15;26.05;;;13.32;;
34673;SDS011;20879;55.668;37.858;2022-09-27T06:43:55;19.08;;;11.43;;
34673;SDS011;20879;55.668;37.858;2022-09-27T06:46:42;16.95;;;10.35;;
34673;SDS011;20879;55.668;37.858;2022-09-27T06:49:48;18.33;;;10.52;;
34673;SDS011;20879;55.668;37.858;2022-09-27T06:52:18;16.33;;;9.30;;
34673;SDS011;20879;55.668;37.858;2022-09-27T06:54:47;15.88;;;8.60;;
34673;SDS011;20879;55.668;37.858;2022-09-27T06:57:23;15.95;;;8.55;;
34673;SDS011;20879;55.668;37.858;2022-09-27T07:00:11;10.60;;;6.65;;
34673;SDS011;20879;55.668;37.858;2022-09-27T07:03:17;11.98;;;6.57;;
34673;SDS011;20879;55.668;37.858;2022-09-27T07:06:10;10.32;;;5.85;;
34673;SDS011;20879;55.668;37.858;2022-09-27T07:08:48;8.40;;;6.13;;
34673;SDS011;20879;55.668;37.858;2022-09-27T07:11:21;10.52;;;6.78;;
34673;SDS011;20879;55.668;37.858;2022-09-27T07:13:51;13.73;;;7.35;;
34673;SDS011;20879;55.668;37.858;2022-09-27T07:16:22;9.23;;;6.75;;
34673;SDS011;20879;55.668;37.858;2022-09-27T07:18:51;12.00;;;7.00;;
34673;SDS011;20879;55.668;37.858;2022-09-27T07:21:29;9.80;;;6.60;;
34673;SDS011;20879;55.668;37.858;2022-09-27T07:24:04;9.48;;;7.38;;
34673;SDS011;20879;55.668;37.858;2022-09-27T07:26:33;10.25;;;5.93;;
34673;SDS011;20879;55.668;37.858;2022-09-27T07:31:34;9.95;;;5.70;;
34673;SDS011;20879;55.668;37.858;2022-09-27T07:34:10;8.65;;;6.15;;
34673;SDS011;20879;55.668;37.858;2022-09-27T07:36:42;9.38;;;5.57;;
34673;SDS011;20879;55.668;37.858;2022-09-27T07:39:12;6.72;;;5.35;;
34673;SDS011;20879;55.668;37.858;2022-09-27T07:41:43;10.65;;;6.25;;
34673;SDS011;20879;55.668;37.858;2022-09-27T07:44:12;12.65;;;6.85;;
34673;SDS011;20879;55.668;37.858;2022-09-27T07:47:06;11.63;;;7.68;;
34673;SDS011;20879;55.668;37.858;2022-09-27T07:49:59;19.05;;;10.10;;
34673;SDS011;20879;55.668;37.858;2022-09-27T07:52:42;15.93;;;9.40;;
34673;SDS011;20879;55.668;37.858;2022-09-27T07:55:35;17.08;;;9.20;;
34673;SDS011;20879;55.668;37.858;2022-09-27T07:58:10;13.75;;;8.07;;
34673;SDS011;20879;55.668;37.858;2022-09-27T08:03:16;18.95;;;10.23;;
34673;SDS011;20879;55.668;37.858;2022-09-27T08:05:46;15.75;;;10.00;;
34673;SDS011;20879;55.668;37.858;2022-09-27T08:08:18;20.70;;;11.20;;
34673;SDS011;20879;55.668;37.858;2022-09-27T08:13:40;16.83;;;10.75;;
34673;SDS011;20879;55.668;37.858;2022-09-27T08:16:10;12.75;;;8.75;;
34673;SDS011;20879;55.668;37.858;2022-09-27T08:19:06;11.15;;;8.07;;
34673;SDS011;20879;55.668;37.858;2022-09-27T08:21:59;13.73;;;9.95;;
34673;SDS011;20879;55.668;37.858;2022-09-27T08:24:43;16.08;;;9.68;;
34673;SDS011;20879;55.668;37.858;2022-09-27T08:27:20;15.02;;;9.30;;
34673;SDS011;20879;55.668;37.858;2022-09-27T08:29:51;13.20;;;8.70;;
34673;SDS011;20879;55.668;37.858;2022-09-27T08:32:22;15.55;;;9.55;;
34673;SDS011;20879;55.668;37.858;2022-09-27T08:34:53;10.95;;;8.10;;
34673;SDS011;20879;55.668;37.858;2022-09-27T08:37:22;15.13;;;9.55;;
34673;SDS011;20879;55.668;37.858;2022-09-27T08:39:54;10.88;;;7.20;;
34673;SDS011;20879;55.668;37.858;2022-09-27T08:42:34;13.88;;;8.77;;
34673;SDS011;20879;55.668;37.858;2022-09-27T08:45:17;13.82;;;8.98;;
34673;SDS011;20879;55.668;37.858;2022-09-27T08:47:53;11.52;;;7.80;;
34673;SDS011;20879;55.668;37.858;2022-09-27T08:50:26;11.80;;;7.72;;
34673;SDS011;20879;55.668;37.858;2022-09-27T08:53:13;14.13;;;6.75;;
34673;SDS011;20879;55.668;37.858;2022-09-27T08:55:51;7.18;;;5.40;;
34673;SDS011;20879;55.668;37.858;2022-09-27T08:58:27;7.13;;;4.90;;
34673;SDS011;20879;55.668;37.858;2022-09-27T09:01:03;5.68;;;4.45;;
34673;SDS011;20879;55.668;37.858;2022-09-27T09:03:42;8.45;;;4.93;;
34673;SDS011;20879;55.668;37.858;2022-09-27T09:06:15;7.85;;;4.95;;
34673;SDS011;20879;55.668;37.858;2022-09-27T09:08:55;7.55;;;5.30;;
34673;SDS011;20879;55.668;37.858;2022-09-27T09:11:40;7.65;;;4.75;;
34673;SDS011;20879;55.668;37.858;2022-09-27T09:14:36;8.10;;;4.80;;
34673;SDS011;20879;55.668;37.858;2022-09-27T09:17:19;5.80;;;5.00;;
34673;SDS011;20879;55.668;37.858;2022-09-27T09:20:27;9.00;;;5.53;;
34673;SDS011;20879;55.668;37.858;2022-09-27T09:26:07;4.82;;;3.80;;
34673;SDS011;20879;55.668;37.858;2022-09-27T09:28:53;6.57;;;2.90;;
34673;SDS011;20879;55.668;37.858;2022-09-27T09:31:35;5.88;;;2.35;;
34673;SDS011;20879;55.668;37.858;2022-09-27T09:34:16;2.83;;;2.50;;
34673;SDS011;20879;55.668;37.858;2022-09-27T09:36:51;6.55;;;2.63;;
34673;SDS011;20879;55.668;37.858;2022-09-27T09:39:25;3.08;;;2.22;;
34673;SDS011;20879;55.668;37.858;2022-09-27T09:42:06;2.33;;;2.13;;
34673;SDS011;20879;55.668;37.858;2022-09-27T09:47:25;3.88;;;2.38;;
34673;SDS011;20879;55.668;37.858;2022-09-27T09:50:12;3.58;;;2.33;;
34673;SDS011;20879;55.668;37.858;2022-09-27T09:52:56;2.88;;;2.38;;
34673;SDS011;20879;55.668;37.858;2022-09-27T09:55:32;2.55;;;1.92;;
34673;SDS011;20879;55.668;37.858;2022-09-27T09:58:05;3.33;;;2.08;;
34673;SDS011;20879;55.668;37.858;2022-09-27T10:00:52;2.40;;;2.20;;
34673;SDS011;20879;55.668;37.858;2022-09-27T10:03:29;2.88;;;1.73;;
34673;SDS011;20879;55.668;37.858;2022-09-27T10:06:04;1.70;;;1.25;;
34673;SDS011;20879;55.668;37.858;2022-09-27T10:08:34;1.88;;;1.40;;
34673;SDS011;20879;55.668;37.858;2022-09-27T10:11:30;1.23;;;1.00;;
34673;SDS011;20879;55.668;37.858;2022-09-27T10:14:12;2.33;;;1.10;;
34673;SDS011;20879;55.668;37.858;2022-09-27T10:16:54;1.58;;;1.17;;
34673;SDS011;20879;55.668;37.858;2022-09-27T10:19:32;5.35;;;2.60;;
34673;SDS011;20879;55.668;37.858;2022-09-27T10:22:09;4.80;;;3.50;;
34673;SDS011;20879;55.668;37.858;2022-09-27T10:24:52;6.55;;;3.28;;
34673;SDS011;20879;55.668;37.858;2022-09-27T10:27:37;6.32;;;3.85;;
34673;SDS011;20879;55.668;37.858;2022-09-27T10:30:25;5.50;;;3.20;;
34673;SDS011;20879;55.668;37.858;2022-09-27T10:33:02;6.05;;;3.20;;
34673;SDS011;20879;55.668;37.858;2022-09-27T10:35:46;5.60;;;2.92;;
34673;SDS011;20879;55.668;37.858;2022-09-27T10:38:27;4.43;;;2.60;;
34673;SDS011;20879;55.668;37.858;2022-09-27T10:41:15;4.65;;;2.85;;
34673;SDS011;20879;55.668;37.858;2022-09-27T10:43:54;5.37;;;2.90;;
34673;SDS011;20879;55.668;37.858;2022-09-27T10:46:30;3.67;;;2.45;;
34673;SDS011;20879;55.668;37.858;2022-09-27T10:49:33;4.47;;;2.65;;
34673;SDS011;20879;55.668;37.858;2022-09-27T10:52:13;4.88;;;1.98;;
34673;SDS011;20879;55.668;37.858;2022-09-27T10:54:52;4.38;;;2.42;;
34673;SDS011;20879;55.668;37.858;2022-09-27T10:57:24;4.55;;;2.20;;
34673;SDS011;20879;55.668;37.858;2022-09-27T10:59:56;4.25;;;2.42;;
34673;SDS011;20879;55.668;37.858;2022-09-27T11:02:30;2.38;;;1.83;;
34673;SDS011;20879;55.668;37.858;2022-09-27T11:05:10;3.65;;;2.08;;
34673;SDS011;20879;55.668;37.858;2022-09-27T11:07:47;3.10;;;2.40;;
34673;SDS011;20879;55.668;37.858;2022-09-27T11:10:22;3.58;;;2.08;;
34673;SDS011;20879;55.668;37.858;2022-09-27T11:13:11;5.15;;;1.70;;
34673;SDS011;20879;55.668;37.858;2022-09-27T11:15:50;2.70;;;2.20;;
34673;SDS011;20879;55.668;37.858;2022-09-27T11:18:30;3.60;;;2.10;;
34673;SDS011;20879;55.668;37.858;2022-09-27T11:21:17;3.55;;;2.15;;
34673;SDS011;20879;55.668;37.858;2022-09-27T11:24:06;3.08;;;2.22;;
34673;SDS011;20879;55.668;37.858;2022-09-27T11:27:03;3.00;;;2.22;;
34673;SDS011;20879;55.668;37.858;2022-09-27T11:29:44;2.35;;;2.03;;
34673;SDS011;20879;55.668;37.858;2022-09-27T11:32:54;4.13;;;2.10;;
34673;SDS011;20879;55.668;37.858;2022-09-27T11:35:49;4.60;;;2.67;;
34673;SDS011;20879;55.668;37.858;2022-09-27T11:38:28;3.00;;;2.28;;
34673;SDS011;20879;55.668;37.858;2022-09-27T11:41:27;4.40;;;2.75;;
34673;SDS011;20879;55.668;37.858;2022-09-27T11:44:14;4.63;;;2.58;;
34673;SDS011;20879;55.668;37.858;2022-09-27T11:47:10;4.47;;;3.10;;
34673;SDS011;20879;55.668;37.858;2022-09-27T11:53:02;3.05;;;2.33;;
34673;SDS011;20879;55.668;37.858;2022-09-27T11:55:51;3.63;;;3.10;;
34673;SDS011;20879;55.668;37.858;2022-09-27T11:58:31;5.40;;;2.88;;
34673;SDS011;20879;55.668;37.858;2022-09-27T12:01:12;7.07;;;3.80;;
34673;SDS011;20879;55.668;37.858;2022-09-27T12:04:07;9.00;;;3.40;;
34673;SDS011;20879;55.668;37.858;2022-09-27T12:09:34;8.60;;;3.80;;
34673;SDS011;20879;55.668;37.858;2022-09-27T12:12:11;9.63;;;3.90;;
34673;SDS011;20879;55.668;37.858;2022-09-27T12:14:46;5.35;;;4.00;;
34673;SDS011;20879;55.668;37.858;2022-09-27T12:17:21;10.73;;;3.63;;
34673;SDS011;20879;55.668;37.858;2022-09-27T12:19:58;5.32;;;3.90;;
34673;SDS011;20879;55.668;37.858;2022-09-27T12:22:48;3.75;;;3.35;;
34673;SDS011;20879;55.668;37.858;2022-09-27T12:25:35;4.65;;;3.70;;
34673;SDS011;20879;55.668;37.858;2022-09-27T12:28:21;4.63;;;3.38;;
34673;SDS011;20879;55.668;37.858;2022-09-27T12:31:01;4.38;;;3.13;;
34673;SDS011;20879;55.668;37.858;2022-09-27T12:34:00;7.22;;;3.25;;
34673;SDS011;20879;55.668;37.858;2022-09-27T12:36:46;6.25;;;3.13;;
34673;SDS011;20879;55.668;37.858;2022-09-27T12:39:22;5.03;;;3.10;;
34673;SDS011;20879;55.668;37.858;2022-09-27T12:42:15;4.00;;;2.67;;
34673;SDS011;20879;55.668;37.858;2022-09-27T12:44:50;5.05;;;2.92;;
34673;SDS011;20879;55.668;37.858;2022-09-27T12:47:25;3.55;;;2.83;;
34673;SDS011;20879;55.668;37.858;2022-09-27T12:56:38;2.63;;;2.05;;
34673;SDS011;20879;55.668;37.858;2022-09-27T13:02:25;4.97;;;2.80;;
34673;SDS011;20879;55.668;37.858;2022-09-27T13:08:15;3.80;;;3.00;;
34673;SDS011;20879;55.668;37.858;2022-09-27T13:11:09;4.78;;;2.67;;
34673;SDS011;20879;55.668;37.858;2022-09-27T13:13:46;3.90;;;2.47;;
34673;SDS011;20879;55.668;37.858;2022-09-27T13:18:52;8.40;;;2.25;;
34673;SDS011;20879;55.668;37.858;2022-09-27T13:24:46;4.15;;;2.45;;
34673;SDS011;20879;55.668;37.858;2022-09-27T13:27:49;5.05;;;2.80;;
34673;SDS011;20879;55.668;37.858;2022-09-27T13:33:31;5.22;;;3.22;;
34673;SDS011;20879;55.668;37.858;2022-09-27T13:36:20;4.47;;;3.03;;
34673;SDS011;20879;55.668;37.858;2022-09-27T13:42:20;4.68;;;2.85;;
34673;SDS011;20879;55.668;37.858;2022-09-27T13:45:14;5.03;;;2.60;;
34673;SDS011;20879;55.668;37.858;2022-09-27T13:47:53;7.40;;;2.25;;
34673;SDS011;20879;55.668;37.858;2022-09-27T13:50:36;6.28;;;2.33;;
34673;SDS011;20879;55.668;37.858;2022-09-27T13:53:18;4.35;;;2.30;;
34673;SDS011;20879;55.668;37.858;2022-09-27T13:55:52;6.68;;;2.33;;
34673;SDS011;20879;55.668;37.858;2022-09-27T13:58:49;3.90;;;2.08;;
34673;SDS011;20879;55.668;37.858;2022-09-27T14:01:43;5.28;;;2.58;;
34673;SDS011;20879;55.668;37.858;2022-09-27T14:04:22;5.43;;;2.22;;
34673;SDS011;20879;55.668;37.858;2022-09-27T14:06:56;6.25;;;2.80;;
34673;SDS011;20879;55.668;37.858;2022-09-27T14:09:29;3.15;;;2.35;;
34673;SDS011;20879;55.668;37.858;2022-09-27T14:12:20;4.88;;;2.45;;
34673;SDS011;20879;55.668;37.858;2022-09-27T14:14:53;5.25;;;2.40;;
34673;SDS011;20879;55.668;37.858;2022-09-27T14:17:30;5.40;;;2.55;;
34673;SDS011;20879;55.668;37.858;2022-09-27T14:20:27;6.00;;;2.47;;
34673;SDS011;20879;55.668;37.858;2022-09-27T14:22:59;2.97;;;2.30;;
34673;SDS011;20879;55.668;37.858;2022-09-27T14:25:37;4.47;;;2.83;;
34673;SDS011;20879;55.668;37.858;2022-09-27T14:28:22;6.45;;;2.78;;
34673;SDS011;20879;55.668;37.858;2022-09-27T14:31:12;5.47;;;2.50;;
34673;SDS011;20879;55.668;37.858;2022-09-27T14:34:04;3.13;;;2.40;;
34673;SDS011;20879;55.668;37.858;2022-09-27T14:36:39;8.18;;;2.80;;
34673;SDS011;20879;55.668;37.858;2022-09-27T14:39:29;4.07;;;2.63;;
34673;SDS011;20879;55.668;37.858;2022-09-27T14:42:26;5.55;;;2.90;;
34673;SDS011;20879;55.668;37.858;2022-09-27T14:45:13;7.75;;;3.47;;
34673;SDS011;20879;55.668;37.858;2022-09-27T14:47:48;3.80;;;2.70;;
34673;SDS011;20879;55.668;37.858;2022-09-27T14:50:19;8.80;;;3.30;;
34673;SDS011;20879;55.668;37.858;2022-09-27T14:52:52;8.20;;;3.38;;
34673;SDS011;20879;55.668;37.858;2022-09-27T14:55:23;5.30;;;3.17;;
34673;SDS011;20879;55.668;37.858;2022-09-27T14:57:56;6.97;;;3.28;;
34673;SDS011;20879;55.668;37.858;2022-09-27T15:00:28;4.35;;;3.10;;
34673;SDS011;20879;55.668;37.858;2022-09-27T15:03:01;5.15;;;3.10;;
34673;SDS011;20879;55.668;37.858;2022-09-27T15:05:34;9.27;;;3.40;;
34673;SDS011;20879;55.668;37.858;2022-09-27T15:08:05;5.45;;;3.08;;
34673;SDS011;20879;55.668;37.858;2022-09-27T15:10:34;8.85;;;3.75;;
34673;SDS011;20879;55.668;37.858;2022-09-27T15:13:12;5.93;;;3.50;;
34673;SDS011;20879;55.668;37.858;2022-09-27T15:15:49;8.23;;;3.30;;
34673;SDS011;20879;55.668;37.858;2022-09-27T15:21:26;7.70;;;3.50;;
34673;SDS011;20879;55.668;37.858;2022-09-27T15:23:58;6.13;;;3.75;;
34673;SDS011;20879;55.668;37.858;2022-09-27T15:31:56;9.02;;;3.90;;
34673;SDS011;20879;55.668;37.858;2022-09-27T15:34:27;7.97;;;4.07;;
34673;SDS011;20879;55.668;37.858;2022-09-27T15:36:58;8.13;;;3.95;;
34673;SDS011;20879;55.668;37.858;2022-09-27T15:39:31;9.90;;;4.63;;
34673;SDS011;20879;55.668;37.858;2022-09-27T15:42:03;6.63;;;4.22;;
34673;SDS011;20879;55.668;37.858;2022-09-27T15:44:35;10.35;;;5.60;;
34673;SDS011;20879;55.668;37.858;2022-09-27T15:50:31;9.85;;;4.00;;
34673;SDS011;20879;55.668;37.858;2022-09-27T15:53:04;7.95;;;3.67;;
34673;SDS011;20879;55.668;37.858;2022-09-27T15:55:38;9.23;;;4.50;;
34673;SDS011;20879;55.668;37.858;2022-09-27T15:58:11;7.32;;;4.20;;
34673;SDS011;20879;55.668;37.858;2022-09-27T16:00:50;8.80;;;4.53;;
34673;SDS011;20879;55.668;37.858;2022-09-27T16:03:20;8.93;;;4.68;;
34673;SDS011;20879;55.668;37.858;2022-09-27T16:05:50;7.78;;;4.38;;
34673;SDS011;20879;55.668;37.858;2022-09-27T16:08:21;8.90;;;5.28;;
34673;SDS011;20879;55.668;37.858;2022-09-27T16:10:53;8.32;;;4.68;;
34673;SDS011;20879;55.668;37.858;2022-09-27T16:13:31;6.57;;;4.32;;
34673;SDS011;20879;55.668;37.858;2022-09-27T16:16:00;12.63;;;4.45;;
34673;SDS011;20879;55.668;37.858;2022-09-27T16:18:36;9.05;;;4.40;;
34673;SDS011;20879;55.668;37.858;2022-09-27T16:23:41;8.60;;;4.78;;
34673;SDS011;20879;55.668;37.858;2022-09-27T16:26:12;8.15;;;4.10;;
34673;SDS011;20879;55.668;37.858;2022-09-27T16:28:41;9.32;;;4.15;;
34673;SDS011;20879;55.668;37.858;2022-09-27T16:31:20;6.57;;;4.57;;
34673;SDS011;20879;55.668;37.858;2022-09-27T16:33:49;7.18;;;4.60;;
34673;SDS011;20879;55.668;37.858;2022-09-27T16:36:18;7.75;;;4.30;;
34673;SDS011;20879;55.668;37.858;2022-09-27T16:38:48;9.55;;;5.18;;
34673;SDS011;20879;55.668;37.858;2022-09-27T16:41:31;6.18;;;3.65;;